Flight Track Log - Related Links

Times and Time Zones

All times are in EDT time to prevent confusion due to time zone crossing. See the EJA898 flight status page for this flight to view local times or setup timezone preferences in your user account.

Time Position Orientation Groundspeed Altitude Reporting Facility
EDT Latitude Longitude Course Direction KTS MPH feet Rate Location/Type
Wed 02:33:19 PM 40.8333 -74.0833 252° West 177 204 1,000  Level New York TRACON
Wed 02:34:19 PM 40.8167 -74.1500 252° West 188 216 2,300 2,250 Climbing New York TRACON
Wed 02:35:19 PM 40.8167 -74.2333 270° West 236 272 5,500 1,850 Climbing New York TRACON
Wed 02:36:19 PM 40.8667 -74.3000 315° West 277 319 6,000 250 Climbing New York TRACON
Wed 02:37:19 PM 40.9500 -74.2500 24° Northeast 301 346 6,000  Level New York TRACON
Wed 02:38:19 PM 41.0167 -74.2167 21° North 299 344 6,000  Level New York TRACON
Wed 02:39:19 PM 41.1000 -74.1667 24° Northeast 303 349 6,000 1,236 Level New York TRACON
Wed 02:41:04 PM 41.1889 -74.0317 49° Northeast 303 349 9,400 1,818 Climbing Boston Center
Wed 02:42:04 PM 41.2111 -73.9272 74° East 311 358 11,000 2,150 Climbing Boston Center
Wed 02:43:04 PM 41.2022 -73.7975 95° East 320 368 13,700 2,600 Climbing Boston Center
Wed 02:44:04 PM 41.1953 -73.6842 95° East 334 384 16,200 2,200 Climbing Boston Center
Wed 02:45:04 PM 41.2608 -73.5917 47° Northeast 339 390 18,100 1,950 Climbing Boston Center
Wed 02:46:04 PM 41.3536 -73.4772 43° Northeast 370 426 20,100 1,950 Climbing Boston Center
Wed 02:47:04 PM 41.4400 -73.3678 44° Northeast 401 461 22,000 1,950 Climbing Boston Center
Wed 02:48:04 PM 41.5283 -73.2525 44° Northeast 418 481 24,000 1,850 Climbing Boston Center
Wed 02:49:04 PM 41.6333 -73.1483 37° Northeast 423 487 25,700 1,600 Climbing Boston Center
Wed 02:50:04 PM 41.7544 -73.1275 North 424 488 27,200 1,450 Climbing Boston Center
Wed 02:51:04 PM 41.8772 -73.1483 353° North 424 488 28,600 1,400 Climbing Boston Center
Wed 02:52:04 PM 42.0000 -73.1719 352° North 424 488 30,000 700 Climbing Boston Center
Wed 02:53:04 PM 42.1208 -73.1931 353° North 429 494 30,000  Level Boston Center
Wed 02:54:04 PM 42.2478 -73.2000 358° North 434 499 30,000  Level Boston Center
Wed 02:55:04 PM 42.3567 -73.1256 27° Northeast 482 555 30,000  Level Boston Center
Wed 02:56:04 PM 42.4428 -72.9914 49° Northeast 462 532 30,000  Level Boston Center
Wed 02:57:04 PM 42.5122 -72.8372 59° Northeast 460 529 30,000  Level Boston Center
Wed 02:58:16 PM 42.5814 -72.6797 59° Northeast 478 550 30,000  Level Boston Center
Wed 02:59:16 PM 42.6692 -72.4967 57° Northeast 478 550 30,000  Level Boston Center
Wed 03:00:16 PM 42.7358 -72.3411 60° Northeast 478 550 30,000  Level Boston Center
Wed 03:01:16 PM 42.7981 -72.1883 61° Northeast 466 536 30,000  Level Boston Center
Wed 03:02:16 PM 42.8644 -72.0322 60° Northeast 466 536 30,000  Level Boston Center
Wed 03:03:16 PM 42.9325 -71.8786 59° Northeast 466 536 30,000 -150 Level Boston Center
Wed 03:04:16 PM 42.9983 -71.7219 60° Northeast 466 536 29,700 -800 Descending Boston Center
Wed 03:05:16 PM 43.0497 -71.6019 60° Northeast 466 536 28,400 -1,400 Descending Boston Center
Wed 03:06:16 PM 43.1131 -71.4531 60° Northeast 466 536 26,900 -1,900 Descending Boston Center
Wed 03:07:16 PM 43.1925 -71.2611 60° Northeast 473 544 24,600 -2,250 Descending Boston Center
Wed 03:08:16 PM 43.2575 -71.1144 59° Northeast 461 531 22,400 -2,200 Descending Boston Center
Wed 03:09:16 PM 43.3161 -70.9675 61° Northeast 448 516 20,200 -2,300 Descending Boston Center
Wed 03:10:16 PM 43.3789 -70.8147 60° Northeast 422 486 17,800 -2,300 Descending Boston Center
Wed 03:11:16 PM 43.4350 -70.6731 61° Northeast 417 480 15,600 -2,150 Descending Boston Center
Wed 03:12:16 PM 43.4872 -70.5514 59° Northeast 417 480 13,500 -1,300 Descending Boston Center
Wed 03:13:16 PM 43.5453 -70.4033 62° Northeast 406 467 13,000 -650 Descending Boston Center
Wed 03:14:16 PM 43.5931 -70.2872 60° Northeast 393 452 12,200 -950 Descending Boston Center
Wed 03:15:16 PM 43.6506 -70.1417 61° Northeast 393 452 11,100 -1,050 Descending Boston Center
Wed 03:16:16 PM 43.7042 -70.0103 61° Northeast 393 452 10,100 -950 Descending Boston Center
Wed 03:17:16 PM 43.7669 -69.9186 47° Northeast 333 383 9,200 -1,200 Descending Boston Center
Wed 03:18:16 PM 43.8161 -69.8878 24° Northeast 303 349 7,700 -1,900 Descending Boston Center
Wed 03:19:16 PM 43.9003 -69.8236 29° Northeast 263 303 5,400 -2,100 Descending Boston Center
Wed 03:20:16 PM 43.9508 -69.7581 43° Northeast 253 291 3,500 -1,400 Descending Boston Center
Wed 03:21:16 PM 43.9906 -69.6811 54° Northeast 242 278 2,600 -450 Descending Boston Center
Wed 03:22:16 PM 44.0283 -69.6044 56° Northeast 242 278 2,600  Level Boston Center
Wed 03:23:16 PM 44.0681 -69.5244 55° Northeast 242 278 2,600  Level Boston Center
Wed 03:24:16 PM 44.1100 -69.4500 52° Northeast 242 278 2,600  Level Boston Center
Wed 03:25:16 PM 44.1161 -69.3717 84° East 217 250 2,600 -50 Level Boston Center
Wed 03:26:16 PM 44.1164 -69.3022 90° East 197 227 2,500 -250 Descending Boston Center
Wed 03:27:16 PM 44.0978 -69.2339 111° Southeast 192 221 2,100 -400 Descending Boston Center
Wed 03:29:00 PM 44.0601 -69.0993 85° East  Level Estimated

Login

Don't have an account? Register now (free) for customized features, flight alerts, and more!